createdAt,value
2023-01-19T00:07:15.732Z,5.40
2023-01-19T00:17:18.788Z,6.30
2023-01-19T00:27:23.415Z,6.47
2023-01-19T00:37:26.501Z,6.43
2023-01-19T00:47:32.175Z,5.90
2023-01-19T00:57:35.305Z,5.83
2023-01-19T01:07:41.710Z,6.20
2023-01-19T01:17:47.753Z,5.80
2023-01-19T01:27:52.630Z,5.47
2023-01-19T01:37:59.431Z,5.37
2023-01-19T01:48:09.847Z,5.87
2023-01-19T01:58:13.676Z,5.63
2023-01-19T02:08:38.464Z,4.90
2023-01-19T02:18:42.486Z,5.40
2023-01-19T02:28:50.439Z,5.43
2023-01-19T02:38:57.068Z,6.07
2023-01-19T02:49:02.205Z,6.50
2023-01-19T02:59:15.566Z,5.67
2023-01-19T03:09:29.651Z,4.90
2023-01-19T03:19:36.547Z,5.37
2023-01-19T03:29:43.894Z,5.87
2023-01-19T03:39:47.238Z,5.70
2023-01-19T03:49:53.967Z,5.70
2023-01-19T03:59:57.101Z,6.07
2023-01-19T04:10:01.738Z,6.13
2023-01-19T04:20:05.216Z,5.80
2023-01-19T04:30:11.373Z,5.30
2023-01-19T04:40:15.645Z,5.63
2023-01-19T04:50:20.292Z,5.13
2023-01-19T05:00:24.444Z,5.30
2023-01-19T05:10:29.514Z,5.53
2023-01-19T05:20:32.618Z,5.33
2023-01-19T05:30:37.191Z,5.63
2023-01-19T05:40:40.219Z,6.10
2023-01-19T05:50:44.788Z,5.50
2023-01-19T06:00:47.965Z,4.90
2023-01-19T06:10:52.552Z,5.57
2023-01-19T06:20:58.713Z,5.50
2023-01-19T06:31:03.758Z,4.90
2023-01-19T06:41:07.111Z,5.00
2023-01-19T06:51:11.573Z,4.97
2023-01-19T07:01:15.058Z,5.17
2023-01-19T07:11:25.850Z,4.83
2023-01-19T07:21:34.265Z,4.50
2023-01-19T07:31:38.848Z,5.43
2023-01-19T07:41:42.031Z,5.23
2023-01-19T07:51:46.455Z,5.73
2023-01-19T08:01:49.599Z,5.77
2023-01-19T08:11:54.147Z,5.97
2023-01-19T08:21:58.852Z,5.80
2023-01-19T08:32:03.358Z,5.33
2023-01-19T08:42:06.507Z,5.80
2023-01-19T08:52:10.904Z,5.37
2023-01-19T09:02:13.974Z,5.40
2023-01-19T09:12:18.450Z,5.57
2023-01-19T09:22:21.544Z,5.60
2023-01-19T09:32:26.009Z,5.80
2023-01-19T09:42:36.462Z,6.90
2023-01-19T09:52:44.832Z,6.87
2023-01-19T10:02:52.972Z,6.40
2023-01-19T10:13:13.933Z,6.37
2023-01-19T10:23:30.273Z,5.37
2023-01-19T10:33:35.401Z,5.13
2023-01-19T10:43:41.526Z,4.90
2023-01-19T10:53:56.704Z,5.20
2023-01-19T11:04:05.660Z,4.00
2023-01-19T11:14:13.421Z,4.33
2023-01-19T11:24:16.678Z,4.50
2023-01-19T11:34:33.808Z,4.47
2023-01-19T11:44:42.491Z,3.90
2023-01-19T11:54:53.505Z,3.90
2023-01-19T12:05:01.320Z,4.40
2023-01-19T12:15:09.918Z,4.60
2023-01-19T12:25:21.815Z,4.60
2023-01-19T12:35:58.237Z,3.83
2023-01-19T12:46:01.334Z,3.73
2023-01-19T12:56:10.384Z,3.67
2023-01-19T13:06:13.543Z,3.80
2023-01-19T13:16:59.091Z,3.47
2023-01-19T13:27:03.667Z,4.00
2023-01-19T13:37:09.324Z,3.93
2023-01-19T13:47:20.191Z,3.90
2023-01-19T13:57:25.277Z,3.73
2023-01-19T14:07:29.818Z,3.43
2023-01-19T14:17:33.188Z,3.43
2023-01-19T14:27:37.587Z,3.97
2023-01-19T14:37:48.892Z,3.70
2023-01-19T14:47:59.556Z,4.17
2023-01-19T14:58:02.744Z,3.70
2023-01-19T15:08:08.028Z,4.57
2023-01-19T15:18:17.588Z,4.50
2023-01-19T15:28:21.971Z,4.17
2023-01-19T15:38:26.544Z,5.57
2023-01-19T15:48:30.960Z,5.03
2023-01-19T15:58:34.038Z,5.27
2023-01-19T16:08:38.848Z,4.87
2023-01-19T16:18:41.956Z,4.70
2023-01-19T16:28:46.390Z,4.90
2023-01-19T16:38:49.543Z,5.90
2023-01-19T16:48:54.100Z,5.50
2023-01-19T16:58:58.394Z,5.47
2023-01-19T17:09:02.855Z,5.47
2023-01-19T17:19:07.529Z,5.20
2023-01-19T17:29:11.935Z,5.10
2023-01-19T17:39:16.866Z,5.73
2023-01-19T17:49:21.339Z,6.10
2023-01-19T17:59:24.432Z,6.13
2023-01-19T18:09:29.030Z,6.47
2023-01-19T18:19:32.158Z,7.27
2023-01-19T18:29:36.720Z,6.60
2023-01-19T18:39:39.738Z,6.70
2023-01-19T18:49:44.118Z,7.63
2023-01-19T18:59:48.778Z,7.53
2023-01-19T19:09:53.222Z,6.90
2023-01-19T19:19:56.255Z,7.23
2023-01-19T19:30:00.651Z,6.93
2023-01-19T19:40:03.875Z,6.60
2023-01-19T19:50:09.411Z,6.57
2023-01-19T20:00:13.223Z,7.40
2023-01-19T20:10:18.454Z,7.03
2023-01-19T20:20:21.490Z,6.50
2023-01-19T20:30:26.679Z,6.97
2023-01-19T20:40:29.752Z,7.37
2023-01-19T20:50:34.206Z,6.47
2023-01-19T21:00:37.416Z,6.77
2023-01-19T21:10:42.310Z,7.67
2023-01-19T21:20:45.827Z,6.30
2023-01-19T21:30:50.721Z,7.00
2023-01-19T21:40:53.991Z,6.10
2023-01-19T21:51:01.295Z,6.70
2023-01-19T22:01:06.589Z,6.37
2023-01-19T22:11:12.759Z,6.83
2023-01-19T22:21:17.446Z,5.87
2023-01-19T22:31:22.044Z,6.33
2023-01-19T22:41:27.420Z,6.50
2023-01-19T22:51:33.198Z,5.00
2023-01-19T23:01:38.333Z,5.00
2023-01-19T23:11:44.873Z,4.90
2023-01-19T23:21:51.086Z,5.50
2023-01-19T23:31:56.242Z,4.87
2023-01-19T23:41:59.336Z,4.80
2023-01-19T23:52:05.769Z,5.30
